Flight Track Log - Related Links

Times and Time Zones

All times are in EDT time to prevent confusion due to time zone crossing. See the CTL17 flight status page for this flight to view local times or setup timezone preferences in your user account.

Time Position Orientation Groundspeed Altitude Reporting Facility
EDT Latitude Longitude Course Direction KTS MPH feet Rate Location/Type
Tue 04:48:00 PM 43.3619 -84.0057 160° South  Level Estimated
Tue 04:49:00 PM 43.3366 -83.9838 148° Southeast  Level FlightAware Approximate
Tue 04:50:00 PM 43.3080 -83.9718 160° South  Level Estimated
Tue 04:51:00 PM 43.2807 -83.9553 156° South  Level FlightAware Approximate
Tue 04:52:00 PM 43.2533 -83.9388 156° South  Level FlightAware Approximate
Tue 04:53:00 PM 43.2247 -83.9271 163° South  Level Estimated
Tue 04:54:00 PM 43.1965 -83.9134 161° South  Level FlightAware Approximate
Tue 04:55:00 PM 43.1683 -83.8997 161° South  Level FlightAware Approximate
Tue 04:56:00 PM 43.1401 -83.8861 161° South  Level FlightAware Approximate
Tue 04:56:50 PM 42.9242 -83.7844 163° South 165 190 5,100  Level Cleveland Center
Tue 04:57:00 PM 43.1115 -83.8746 160° South  Level Estimated
Tue 04:57:45 PM 42.8853 -83.7683 163° South 165 190 5,100  Level Cleveland Center
Tue 04:58:00 PM 43.0835 -83.8603 160° South  Level FlightAware Approximate
Tue 04:58:46 PM 42.8442 -83.7464 159° South 163 188 5,200  Level Cleveland Center
Tue 04:59:00 PM 43.0555 -83.8461 160° South  Level FlightAware Approximate
Tue 04:59:47 PM 42.7967 -83.7297 166° South 170 196 5,100  Level Cleveland Center
Tue 05:00:00 PM 43.0275 -83.8318 160° South  Level FlightAware Approximate
Tue 05:00:47 PM 42.7486 -83.7272 178° South 167 192 5,100  Level Cleveland Center
Tue 05:01:00 PM 42.9995 -83.8176 160° South  Level FlightAware Approximate
Tue 05:01:48 PM 42.7031 -83.7222 175° South 165 190 5,100  Level Cleveland Center
Tue 05:02:49 PM 42.6553 -83.7169 175° South 165 190 5,100 -49 Level Cleveland Center
Tue 05:03:50 PM 42.6075 -83.7089 173° South 171 197 5,000 -148 Descending Cleveland Center
Tue 05:04:51 PM 42.5619 -83.6983 170° South 169 194 4,800 -259 Descending Cleveland Center
Tue 05:05:46 PM 42.5161 -83.6961 178° South 175 201 4,500 -259 Descending Cleveland Center
Tue 05:06:47 PM 42.4708 -83.6769 163° South 173 199 4,300 -188 Descending Cleveland Center
Tue 05:07:54 PM 42.4236 -83.6492 157° South 167 192 4,100 -188 Descending Cleveland Center
Tue 05:08:55 PM 42.3783 -83.6275 161° South 165 190 3,900 -541 Descending Cleveland Center
Tue 05:09:56 PM 42.3283 -83.6222 176° South 183 211 3,000 -744 Descending Cleveland Center
Tue 05:10:56 PM 42.2806 -83.6114 170° South 177 204 2,400 -541 Descending Cleveland Center
Tue 05:11:58 PM 42.2417 -83.5900 158° South 150 173 1,900 -484 Descending Cleveland Center
Tue 05:13:00 PM 42.2400 -83.5484 160° South  Level Estimated
Tue 05:20:00 PM 42.2393 -83.5310 160° South  Level Estimated
Tue 05:21:00 PM 42.2393 -83.5310 160° South  Level Estimated
Tue 05:22:00 PM 42.2393 -83.5310 160° South  Level Estimated

Login

Don't have an account? Register now (free) for customized features, flight alerts, and more!